sensor_id;sensor_type;location;lat;lon;timestamp;pressure;altitude;pressure_sealevel;temperature;humidity
61086;BME280;46967;48.876;2.136;2023-08-06T00:00:38;100824.56;;;36.36;23.00
61086;BME280;46967;48.876;2.136;2023-08-06T00:03:03;100832.44;;;38.99;20.47
61086;BME280;46967;48.876;2.136;2023-08-06T00:05:29;100824.06;;;38.88;20.11
61086;BME280;46967;48.876;2.136;2023-08-06T00:07:54;100835.06;;;41.25;17.91
61086;BME280;46967;48.876;2.136;2023-08-06T00:10:19;100837.03;;;40.05;18.46
61086;BME280;46967;48.876;2.136;2023-08-06T00:12:45;100839.91;;;38.12;20.60
61086;BME280;46967;48.876;2.136;2023-08-06T00:15:10;100848.63;;;39.76;19.17
61086;BME280;46967;48.876;2.136;2023-08-06T00:17:36;100845.38;;;39.62;19.14
61086;BME280;46967;48.876;2.136;2023-08-06T00:20:03;100853.34;;;40.79;17.85
61086;BME280;46967;48.876;2.136;2023-08-06T00:22:33;100850.34;;;41.66;17.08
61086;BME280;46967;48.876;2.136;2023-08-06T00:24:58;100855.88;;;40.23;18.24
61086;BME280;46967;48.876;2.136;2023-08-06T00:27:24;100863.28;;;39.28;19.49
61086;BME280;46967;48.876;2.136;2023-08-06T00:29:49;100870.38;;;40.86;17.79
61086;BME280;46967;48.876;2.136;2023-08-06T00:32:15;100868.28;;;38.28;20.28
61086;BME280;46967;48.876;2.136;2023-08-06T00:34:40;100879.78;;;38.42;20.09
61086;BME280;46967;48.876;2.136;2023-08-06T00:37:06;100873.28;;;40.68;18.07
61086;BME280;46967;48.876;2.136;2023-08-06T00:39:31;100882.84;;;38.64;19.71
61086;BME280;46967;48.876;2.136;2023-08-06T00:41:56;100882.06;;;39.77;18.62
61086;BME280;46967;48.876;2.136;2023-08-06T00:44:23;100889.28;;;41.66;16.77
61086;BME280;46967;48.876;2.136;2023-08-06T00:46:48;100895.69;;;38.20;20.12
61086;BME280;46967;48.876;2.136;2023-08-06T00:49:14;100892.22;;;39.70;18.54
61086;BME280;46967;48.876;2.136;2023-08-06T00:51:39;100897.13;;;39.25;19.39
61086;BME280;46967;48.876;2.136;2023-08-06T00:54:05;100896.84;;;39.03;19.49
61086;BME280;46967;48.876;2.136;2023-08-06T00:56:30;100899.06;;;38.15;20.40
61086;BME280;46967;48.876;2.136;2023-08-06T00:58:56;100895.13;;;38.78;19.82
61086;BME280;46967;48.876;2.136;2023-08-06T01:01:21;100895.69;;;40.17;18.39
61086;BME280;46967;48.876;2.136;2023-08-06T01:03:47;100899.09;;;40.25;18.17
61086;BME280;46967;48.876;2.136;2023-08-06T01:06:12;100907.38;;;40.59;17.56
61086;BME280;46967;48.876;2.136;2023-08-06T01:11:54;100908.13;;;39.42;18.99
61086;BME280;46967;48.876;2.136;2023-08-06T01:14:24;100919.56;;;39.92;18.45
61086;BME280;46967;48.876;2.136;2023-08-06T01:16:54;100922.72;;;40.65;17.68
61086;BME280;46967;48.876;2.136;2023-08-06T01:19:21;100928.72;;;39.08;18.64
61086;BME280;46967;48.876;2.136;2023-08-06T01:21:46;100928.44;;;40.39;17.65
61086;BME280;46967;48.876;2.136;2023-08-06T01:24:11;100937.38;;;40.64;17.67
61086;BME280;46967;48.876;2.136;2023-08-06T01:26:44;100943.41;;;38.14;19.53
61086;BME280;46967;48.876;2.136;2023-08-06T01:29:25;100945.56;;;39.76;18.39
61086;BME280;46967;48.876;2.136;2023-08-06T01:31:55;100938.53;;;39.21;18.69
61086;BME280;46967;48.876;2.136;2023-08-06T01:34:23;100950.69;;;39.18;18.30
61086;BME280;46967;48.876;2.136;2023-08-06T01:36:50;100961.66;;;39.11;18.64
61086;BME280;46967;48.876;2.136;2023-08-06T01:39:16;100964.59;;;40.52;17.13
61086;BME280;46967;48.876;2.136;2023-08-06T01:41:41;100973.78;;;38.23;19.37
61086;BME280;46967;48.876;2.136;2023-08-06T01:44:07;100981.56;;;37.44;20.18
61086;BME280;46967;48.876;2.136;2023-08-06T01:46:32;100978.19;;;40.52;17.11
61086;BME280;46967;48.876;2.136;2023-08-06T01:48:57;100980.19;;;38.96;18.39
61086;BME280;46967;48.876;2.136;2023-08-06T01:51:23;100979.78;;;40.24;17.24
61086;BME280;46967;48.876;2.136;2023-08-06T01:53:48;100989.22;;;41.32;16.37
61086;BME280;46967;48.876;2.136;2023-08-06T01:56:13;100982.81;;;40.39;17.05
61086;BME280;46967;48.876;2.136;2023-08-06T01:58:39;100990.88;;;40.34;17.26
61086;BME280;46967;48.876;2.136;2023-08-06T02:01:04;100992.53;;;40.35;17.16
61086;BME280;46967;48.876;2.136;2023-08-06T02:03:30;100991.69;;;40.47;17.16
61086;BME280;46967;48.876;2.136;2023-08-06T02:05:55;100994.09;;;41.80;15.71
61086;BME280;46967;48.876;2.136;2023-08-06T02:08:20;101004.91;;;41.92;15.86
61086;BME280;46967;48.876;2.136;2023-08-06T02:10:45;100997.75;;;42.08;15.77
61086;BME280;46967;48.876;2.136;2023-08-06T02:13:11;101001.88;;;41.72;15.73
61086;BME280;46967;48.876;2.136;2023-08-06T02:15:42;101004.25;;;41.85;15.95
61086;BME280;46967;48.876;2.136;2023-08-06T02:18:07;101017.75;;;42.36;15.38
61086;BME280;46967;48.876;2.136;2023-08-06T02:20:33;101018.28;;;41.77;15.93
61086;BME280;46967;48.876;2.136;2023-08-06T02:22:58;101019.06;;;42.11;15.72
61086;BME280;46967;48.876;2.136;2023-08-06T02:25:24;101027.25;;;41.60;16.10
61086;BME280;46967;48.876;2.136;2023-08-06T02:27:49;101024.50;;;40.57;16.97
61086;BME280;46967;48.876;2.136;2023-08-06T02:30:14;101032.78;;;39.25;18.40
61086;BME280;46967;48.876;2.136;2023-08-06T02:32:40;101025.28;;;39.51;18.16
61086;BME280;46967;48.876;2.136;2023-08-06T02:35:05;101032.78;;;41.49;16.35
61086;BME280;46967;48.876;2.136;2023-08-06T02:37:33;101033.38;;;39.58;17.72
61086;BME280;46967;48.876;2.136;2023-08-06T02:39:59;101046.94;;;38.60;18.57
61086;BME280;46967;48.876;2.136;2023-08-06T02:42:24;101039.38;;;39.18;18.03
61086;BME280;46967;48.876;2.136;2023-08-06T02:44:52;101041.81;;;40.15;16.97
61086;BME280;46967;48.876;2.136;2023-08-06T02:47:17;101046.06;;;40.11;17.27
61086;BME280;46967;48.876;2.136;2023-08-06T02:49:43;101057.34;;;39.73;17.42
61086;BME280;46967;48.876;2.136;2023-08-06T02:52:08;101059.88;;;39.13;18.12
61086;BME280;46967;48.876;2.136;2023-08-06T02:54:34;101054.56;;;40.15;17.17
61086;BME280;46967;48.876;2.136;2023-08-06T02:56:59;101055.22;;;39.63;17.71
61086;BME280;46967;48.876;2.136;2023-08-06T02:59:24;101066.00;;;39.09;18.27
61086;BME280;46967;48.876;2.136;2023-08-06T03:01:50;101050.84;;;41.55;16.15
61086;BME280;46967;48.876;2.136;2023-08-06T03:04:15;101065.66;;;40.61;16.93
61086;BME280;46967;48.876;2.136;2023-08-06T03:06:42;101072.59;;;39.85;17.63
61086;BME280;46967;48.876;2.136;2023-08-06T03:09:08;101072.81;;;42.16;15.70
61086;BME280;46967;48.876;2.136;2023-08-06T03:11:33;101072.38;;;42.63;15.23
61086;BME280;46967;48.876;2.136;2023-08-06T03:13:58;101074.47;;;42.78;15.12
61086;BME280;46967;48.876;2.136;2023-08-06T03:16:24;101075.25;;;42.74;15.33
61086;BME280;46967;48.876;2.136;2023-08-06T03:18:49;101070.91;;;43.00;14.81
61086;BME280;46967;48.876;2.136;2023-08-06T03:21:14;101077.25;;;41.37;16.00
61086;BME280;46967;48.876;2.136;2023-08-06T03:23:40;101068.41;;;40.13;17.21
61086;BME280;46967;48.876;2.136;2023-08-06T03:26:05;101068.25;;;40.08;17.22
61086;BME280;46967;48.876;2.136;2023-08-06T03:28:30;101058.47;;;42.04;15.44
61086;BME280;46967;48.876;2.136;2023-08-06T03:31:02;101065.28;;;39.86;17.40
61086;BME280;46967;48.876;2.136;2023-08-06T03:33:28;101062.00;;;38.74;18.45
61086;BME280;46967;48.876;2.136;2023-08-06T03:35:53;101071.25;;;39.04;18.08
61086;BME280;46967;48.876;2.136;2023-08-06T03:38:19;101063.66;;;40.97;16.47
61086;BME280;46967;48.876;2.136;2023-08-06T03:40:46;101068.97;;;40.15;16.95
61086;BME280;46967;48.876;2.136;2023-08-06T03:43:11;101068.69;;;41.79;15.53
61086;BME280;46967;48.876;2.136;2023-08-06T03:45:36;101071.44;;;39.09;17.79
61086;BME280;46967;48.876;2.136;2023-08-06T03:48:02;101073.94;;;38.30;18.75
61086;BME280;46967;48.876;2.136;2023-08-06T03:50:27;101076.53;;;39.17;17.59
61086;BME280;46967;48.876;2.136;2023-08-06T03:52:53;101076.84;;;40.88;16.01
61086;BME280;46967;48.876;2.136;2023-08-06T03:55:18;101071.16;;;41.81;15.11
61086;BME280;46967;48.876;2.136;2023-08-06T03:57:43;101081.94;;;41.13;15.31
61086;BME280;46967;48.876;2.136;2023-08-06T04:00:09;101089.41;;;42.53;14.19
61086;BME280;46967;48.876;2.136;2023-08-06T04:02:34;101098.03;;;40.03;16.62
61086;BME280;46967;48.876;2.136;2023-08-06T04:05:00;101088.94;;;41.09;15.88
61086;BME280;46967;48.876;2.136;2023-08-06T04:07:26;101094.91;;;40.94;16.02
61086;BME280;46967;48.876;2.136;2023-08-06T04:09:57;101106.66;;;42.20;14.76
61086;BME280;46967;48.876;2.136;2023-08-06T04:12:23;101113.50;;;40.73;15.86
61086;BME280;46967;48.876;2.136;2023-08-06T04:14:50;101133.84;;;39.51;16.88
61086;BME280;46967;48.876;2.136;2023-08-06T04:17:15;101141.41;;;40.21;16.29
61086;BME280;46967;48.876;2.136;2023-08-06T04:19:41;101149.06;;;40.01;16.90
61086;BME280;46967;48.876;2.136;2023-08-06T04:22:06;101140.19;;;40.17;16.57
61086;BME280;46967;48.876;2.136;2023-08-06T04:24:32;101140.13;;;41.70;15.15
61086;BME280;46967;48.876;2.136;2023-08-06T04:26:57;101142.81;;;41.24;15.61
61086;BME280;46967;48.876;2.136;2023-08-06T04:29:22;101146.13;;;40.73;15.96
61086;BME280;46967;48.876;2.136;2023-08-06T04:31:47;101141.09;;;41.18;15.73
61086;BME280;46967;48.876;2.136;2023-08-06T04:34:13;101147.28;;;42.78;14.40
61086;BME280;46967;48.876;2.136;2023-08-06T04:36:38;101153.25;;;41.15;15.70
61086;BME280;46967;48.876;2.136;2023-08-06T04:39:04;101157.69;;;42.42;14.81
61086;BME280;46967;48.876;2.136;2023-08-06T04:41:29;101155.28;;;42.45;14.52
61086;BME280;46967;48.876;2.136;2023-08-06T04:43:54;101156.97;;;42.29;14.60
61086;BME280;46967;48.876;2.136;2023-08-06T04:46:21;101156.72;;;42.14;14.64
61086;BME280;46967;48.876;2.136;2023-08-06T04:48:46;101162.84;;;39.02;17.71
61086;BME280;46967;48.876;2.136;2023-08-06T04:51:12;101171.84;;;41.18;15.64
61086;BME280;46967;48.876;2.136;2023-08-06T04:53:37;101183.41;;;38.22;18.51
61086;BME280;46967;48.876;2.136;2023-08-06T04:56:02;101180.47;;;40.09;16.81
61086;BME280;46967;48.876;2.136;2023-08-06T04:58:28;101190.84;;;39.70;17.15
61086;BME280;46967;48.876;2.136;2023-08-06T05:00:53;101191.69;;;37.95;18.89
61086;BME280;46967;48.876;2.136;2023-08-06T05:03:19;101196.81;;;40.32;16.55
61086;BME280;46967;48.876;2.136;2023-08-06T05:05:46;101200.78;;;38.65;18.33
61086;BME280;46967;48.876;2.136;2023-08-06T05:08:15;101217.38;;;40.28;16.76
61086;BME280;46967;48.876;2.136;2023-08-06T05:10:45;101218.63;;;38.98;18.26
61086;BME280;46967;48.876;2.136;2023-08-06T05:13:10;101227.50;;;39.05;18.20
61086;BME280;46967;48.876;2.136;2023-08-06T05:15:36;101232.81;;;39.85;17.95
61086;BME280;46967;48.876;2.136;2023-08-06T05:18:01;101234.53;;;40.52;17.03
61086;BME280;46967;48.876;2.136;2023-08-06T05:20:26;101230.78;;;42.62;15.23
61086;BME280;46967;48.876;2.136;2023-08-06T05:22:52;101230.28;;;41.16;16.37
61086;BME280;46967;48.876;2.136;2023-08-06T05:25:17;101234.50;;;41.76;16.00
61086;BME280;46967;48.876;2.136;2023-08-06T05:27:42;101235.03;;;40.07;17.55
61086;BME280;46967;48.876;2.136;2023-08-06T05:30:08;101243.59;;;40.23;17.48
61086;BME280;46967;48.876;2.136;2023-08-06T05:32:34;101244.59;;;40.64;16.88
61086;BME280;46967;48.876;2.136;2023-08-06T05:34:59;101249.06;;;41.98;15.85
61086;BME280;46967;48.876;2.136;2023-08-06T05:37:24;101257.25;;;41.29;16.34
61086;BME280;46967;48.876;2.136;2023-08-06T05:39:50;101260.44;;;41.67;16.02
61086;BME280;46967;48.876;2.136;2023-08-06T05:42:15;101267.16;;;42.84;14.93
61086;BME280;46967;48.876;2.136;2023-08-06T05:44:41;101263.16;;;41.78;15.80
61086;BME280;46967;48.876;2.136;2023-08-06T05:47:06;101268.97;;;41.70;15.88
61086;BME280;46967;48.876;2.136;2023-08-06T05:49:31;101272.13;;;41.38;16.45
61086;BME280;46967;48.876;2.136;2023-08-06T05:51:57;101270.25;;;42.08;15.67
61086;BME280;46967;48.876;2.136;2023-08-06T05:54:22;101274.91;;;40.91;16.57
61086;BME280;46967;48.876;2.136;2023-08-06T05:56:47;101269.22;;;42.77;14.89
61086;BME280;46967;48.876;2.136;2023-08-06T05:59:13;101282.69;;;42.50;15.16
61086;BME280;46967;48.876;2.136;2023-08-06T06:01:38;101282.75;;;42.38;15.12
61086;BME280;46967;48.876;2.136;2023-08-06T06:04:03;101285.25;;;41.53;16.02
61086;BME280;46967;48.876;2.136;2023-08-06T06:06:29;101282.44;;;41.36;16.07
61086;BME280;46967;48.876;2.136;2023-08-06T06:08:54;101298.22;;;39.84;17.21
61086;BME280;46967;48.876;2.136;2023-08-06T06:11:19;101293.09;;;40.25;17.19
61086;BME280;46967;48.876;2.136;2023-08-06T06:13:50;101291.50;;;38.87;18.44
61086;BME280;46967;48.876;2.136;2023-08-06T06:16:16;101294.41;;;41.35;16.08
61086;BME280;46967;48.876;2.136;2023-08-06T06:18:41;101294.31;;;41.99;15.54
61086;BME280;46967;48.876;2.136;2023-08-06T06:21:06;101303.34;;;41.59;15.96
61086;BME280;46967;48.876;2.136;2023-08-06T06:23:32;101298.75;;;41.48;15.84
61086;BME280;46967;48.876;2.136;2023-08-06T06:25:57;101312.44;;;40.59;16.81
61086;BME280;46967;48.876;2.136;2023-08-06T06:28:22;101307.88;;;39.43;17.71
61086;BME280;46967;48.876;2.136;2023-08-06T06:30:48;101317.00;;;41.00;16.64
61086;BME280;46967;48.876;2.136;2023-08-06T06:33:13;101323.16;;;42.12;15.73
61086;BME280;46967;48.876;2.136;2023-08-06T06:35:38;101325.28;;;43.02;14.74
61086;BME280;46967;48.876;2.136;2023-08-06T06:38:04;101343.16;;;41.01;16.66
61086;BME280;46967;48.876;2.136;2023-08-06T06:40:29;101333.59;;;39.96;16.96
61086;BME280;46967;48.876;2.136;2023-08-06T06:42:54;101343.47;;;38.84;18.33
61086;BME280;46967;48.876;2.136;2023-08-06T06:45:20;101340.91;;;40.44;16.85
61086;BME280;46967;48.876;2.136;2023-08-06T06:47:45;101346.38;;;40.56;16.24
61086;BME280;46967;48.876;2.136;2023-08-06T06:50:11;101357.59;;;39.62;17.39
61086;BME280;46967;48.876;2.136;2023-08-06T06:52:36;101360.63;;;38.78;18.43
61086;BME280;46967;48.876;2.136;2023-08-06T06:55:02;101354.09;;;37.50;19.20
61086;BME280;46967;48.876;2.136;2023-08-06T06:57:27;101358.56;;;35.03;21.43
61086;BME280;46967;48.876;2.136;2023-08-06T06:59:53;101351.34;;;38.92;17.82
61086;BME280;46967;48.876;2.136;2023-08-06T07:02:18;101354.28;;;38.66;17.78
61086;BME280;46967;48.876;2.136;2023-08-06T07:04:45;101339.31;;;37.19;18.88
61086;BME280;46967;48.876;2.136;2023-08-06T07:07:10;101351.72;;;40.74;15.63
61086;BME280;46967;48.876;2.136;2023-08-06T07:09:35;101350.75;;;39.16;17.03
61086;BME280;46967;48.876;2.136;2023-08-06T07:12:01;101370.56;;;38.14;17.17
61086;BME280;46967;48.876;2.136;2023-08-06T07:14:28;101371.56;;;39.22;16.58
61086;BME280;46967;48.876;2.136;2023-08-06T07:16:53;101378.66;;;38.66;17.16
61086;BME280;46967;48.876;2.136;2023-08-06T07:19:19;101370.06;;;39.01;16.52
61086;BME280;46967;48.876;2.136;2023-08-06T07:21:44;101375.59;;;38.49;16.76
61086;BME280;46967;48.876;2.136;2023-08-06T07:24:09;101381.28;;;36.68;18.38
61086;BME280;46967;48.876;2.136;2023-08-06T07:26:34;101377.38;;;37.51;17.76
61086;BME280;46967;48.876;2.136;2023-08-06T07:29:00;101366.69;;;38.80;16.52
61086;BME280;46967;48.876;2.136;2023-08-06T07:31:26;101373.88;;;40.17;15.02
61086;BME280;46967;48.876;2.136;2023-08-06T07:33:51;101374.78;;;39.93;15.28
61086;BME280;46967;48.876;2.136;2023-08-06T07:36:16;101382.66;;;40.01;15.62
61086;BME280;46967;48.876;2.136;2023-08-06T07:38:42;101389.31;;;40.35;15.60
61086;BME280;46967;48.876;2.136;2023-08-06T07:41:08;101398.41;;;36.82;19.31
61086;BME280;46967;48.876;2.136;2023-08-06T07:43:34;101402.34;;;39.34;16.35
61086;BME280;46967;48.876;2.136;2023-08-06T07:46:01;101398.75;;;38.45;16.93
61086;BME280;46967;48.876;2.136;2023-08-06T07:48:27;101396.78;;;38.97;16.67
61086;BME280;46967;48.876;2.136;2023-08-06T07:50:56;101420.69;;;37.11;17.92
61086;BME280;46967;48.876;2.136;2023-08-06T07:53:23;101416.72;;;35.62;19.31
61086;BME280;46967;48.876;2.136;2023-08-06T07:55:52;101417.06;;;38.04;16.82
61086;BME280;46967;48.876;2.136;2023-08-06T07:58:18;101416.69;;;36.73;17.96
61086;BME280;46967;48.876;2.136;2023-08-06T08:00:44;101431.00;;;36.67;18.16
61086;BME280;46967;48.876;2.136;2023-08-06T08:03:11;101425.88;;;37.06;18.18
61086;BME280;46967;48.876;2.136;2023-08-06T08:05:37;101416.72;;;37.80;17.22
61086;BME280;46967;48.876;2.136;2023-08-06T08:08:03;101429.53;;;35.10;19.32
61086;BME280;46967;48.876;2.136;2023-08-06T08:10:28;101419.81;;;37.84;16.58
61086;BME280;46967;48.876;2.136;2023-08-06T08:12:54;101422.56;;;37.30;16.85
61086;BME280;46967;48.876;2.136;2023-08-06T08:15:19;101429.16;;;36.81;17.23
61086;BME280;46967;48.876;2.136;2023-08-06T08:17:45;101425.91;;;39.34;15.11
61086;BME280;46967;48.876;2.136;2023-08-06T08:20:12;101431.16;;;39.79;14.89
61086;BME280;46967;48.876;2.136;2023-08-06T08:22:38;101418.28;;;39.24;15.02
61086;BME280;46967;48.876;2.136;2023-08-06T08:25:03;101430.69;;;40.68;13.90
61086;BME280;46967;48.876;2.136;2023-08-06T08:27:29;101431.72;;;42.15;12.94
61086;BME280;46967;48.876;2.136;2023-08-06T08:29:55;101436.34;;;39.80;14.69
61086;BME280;46967;48.876;2.136;2023-08-06T08:32:20;101441.97;;;41.73;13.26
61086;BME280;46967;48.876;2.136;2023-08-06T08:34:45;101449.06;;;38.34;15.63
61086;BME280;46967;48.876;2.136;2023-08-06T08:37:11;101452.84;;;39.60;13.97
61086;BME280;46967;48.876;2.136;2023-08-06T08:39:36;101459.19;;;39.29;14.76
61086;BME280;46967;48.876;2.136;2023-08-06T08:42:01;101459.88;;;38.40;15.32
61086;BME280;46967;48.876;2.136;2023-08-06T08:44:29;101470.84;;;37.94;15.86
61086;BME280;46967;48.876;2.136;2023-08-06T08:46:57;101464.88;;;38.44;14.92
61086;BME280;46967;48.876;2.136;2023-08-06T08:49:23;101477.66;;;40.26;13.73
61086;BME280;46967;48.876;2.136;2023-08-06T08:51:50;101469.06;;;38.85;15.06
61086;BME280;46967;48.876;2.136;2023-08-06T08:54:18;101469.09;;;40.60;13.28
61086;BME280;46967;48.876;2.136;2023-08-06T08:56:45;101461.44;;;40.99;12.98
61086;BME280;46967;48.876;2.136;2023-08-06T08:59:10;101468.41;;;40.95;13.18
61086;BME280;46967;48.876;2.136;2023-08-06T09:01:37;101463.91;;;39.34;14.50
61086;BME280;46967;48.876;2.136;2023-08-06T09:04:05;101475.03;;;39.50;14.87
61086;BME280;46967;48.876;2.136;2023-08-06T09:06:33;101476.00;;;39.38;14.45
61086;BME280;46967;48.876;2.136;2023-08-06T09:09:08;101488.38;;;40.88;13.26
61086;BME280;46967;48.876;2.136;2023-08-06T09:11:40;101487.34;;;40.71;13.58
61086;BME280;46967;48.876;2.136;2023-08-06T09:14:07;101486.28;;;41.80;12.91
61086;BME280;46967;48.876;2.136;2023-08-06T09:16:35;101490.09;;;41.25;13.20
61086;BME280;46967;48.876;2.136;2023-08-06T09:19:10;101493.09;;;39.06;14.79
61086;BME280;46967;48.876;2.136;2023-08-06T09:21:38;101494.94;;;39.44;14.59
61086;BME280;46967;48.876;2.136;2023-08-06T09:24:11;101501.03;;;42.20;12.46
61086;BME280;46967;48.876;2.136;2023-08-06T09:26:37;101501.44;;;41.10;12.83
61086;BME280;46967;48.876;2.136;2023-08-06T09:29:08;101502.00;;;41.00;12.89
61086;BME280;46967;48.876;2.136;2023-08-06T09:34:16;101508.75;;;40.12;13.55
61086;BME280;46967;48.876;2.136;2023-08-06T09:36:42;101504.63;;;41.73;12.94
61086;BME280;46967;48.876;2.136;2023-08-06T09:39:16;101506.50;;;41.84;12.69
61086;BME280;46967;48.876;2.136;2023-08-06T09:41:42;101503.63;;;42.67;12.25
61086;BME280;46967;48.876;2.136;2023-08-06T09:44:21;101498.91;;;43.25;11.71
61086;BME280;46967;48.876;2.136;2023-08-06T09:46:53;101504.16;;;43.60;11.75
61086;BME280;46967;48.876;2.136;2023-08-06T09:49:20;101508.25;;;41.43;12.88
61086;BME280;46967;48.876;2.136;2023-08-06T09:51:46;101509.22;;;40.09;13.66
61086;BME280;46967;48.876;2.136;2023-08-06T09:54:16;101513.69;;;41.43;12.65
61086;BME280;46967;48.876;2.136;2023-08-06T09:56:42;101513.94;;;41.65;12.59
61086;BME280;46967;48.876;2.136;2023-08-06T09:59:08;101516.31;;;41.50;12.81
61086;BME280;46967;48.876;2.136;2023-08-06T10:01:35;101505.19;;;40.30;12.94
61086;BME280;46967;48.876;2.136;2023-08-06T10:04:05;101506.19;;;43.02;11.42
61086;BME280;46967;48.876;2.136;2023-08-06T10:06:36;101510.03;;;40.46;12.67
61086;BME280;46967;48.876;2.136;2023-08-06T10:09:02;101506.13;;;40.42;12.87
61086;BME280;46967;48.876;2.136;2023-08-06T10:11:28;101517.19;;;39.60;13.32
61086;BME280;46967;48.876;2.136;2023-08-06T10:14:06;101501.81;;;39.97;13.03
61086;BME280;46967;48.876;2.136;2023-08-06T10:16:34;101512.09;;;41.12;12.60
61086;BME280;46967;48.876;2.136;2023-08-06T10:19:01;101504.88;;;43.22;11.28
61086;BME280;46967;48.876;2.136;2023-08-06T10:21:28;101518.34;;;41.12;12.28
61086;BME280;46967;48.876;2.136;2023-08-06T10:23:55;101528.47;;;39.82;13.18
61086;BME280;46967;48.876;2.136;2023-08-06T10:26:28;101519.75;;;38.26;14.68
61086;BME280;46967;48.876;2.136;2023-08-06T10:28:53;101522.38;;;41.99;11.92
61086;BME280;46967;48.876;2.136;2023-08-06T10:31:19;101516.31;;;43.53;11.03
61086;BME280;46967;48.876;2.136;2023-08-06T10:33:46;101529.34;;;42.30;11.61
61086;BME280;46967;48.876;2.136;2023-08-06T10:36:12;101530.22;;;40.87;12.65
61086;BME280;46967;48.876;2.136;2023-08-06T10:38:49;101520.97;;;41.19;12.59
61086;BME280;46967;48.876;2.136;2023-08-06T10:41:21;101525.47;;;43.13;11.27
61086;BME280;46967;48.876;2.136;2023-08-06T10:43:48;101531.16;;;43.40;10.74
61086;BME280;46967;48.876;2.136;2023-08-06T10:46:42;101535.09;;;39.36;14.11
61086;BME280;46967;48.876;2.136;2023-08-06T10:49:07;101533.75;;;41.72;12.37
61086;BME280;46967;48.876;2.136;2023-08-06T10:51:33;101529.34;;;43.00;11.25
61086;BME280;46967;48.876;2.136;2023-08-06T10:53:59;101519.16;;;44.63;10.62
61086;BME280;46967;48.876;2.136;2023-08-06T10:56:25;101534.41;;;41.32;11.68
61086;BME280;46967;48.876;2.136;2023-08-06T10:58:55;101534.06;;;41.52;11.90
61086;BME280;46967;48.876;2.136;2023-08-06T11:01:23;101551.78;;;39.90;13.27
61086;BME280;46967;48.876;2.136;2023-08-06T11:03:49;101541.59;;;40.47;13.21
61086;BME280;46967;48.876;2.136;2023-08-06T11:06:22;101551.78;;;40.70;13.14
61086;BME280;46967;48.876;2.136;2023-08-06T11:08:50;101544.09;;;40.49;12.91
61086;BME280;46967;48.876;2.136;2023-08-06T11:11:16;101544.13;;;41.09;12.47
61086;BME280;46967;48.876;2.136;2023-08-06T11:13:44;101541.28;;;42.82;11.40
61086;BME280;46967;48.876;2.136;2023-08-06T11:16:11;101541.03;;;42.83;11.51
61086;BME280;46967;48.876;2.136;2023-08-06T11:18:37;101550.63;;;43.32;11.26
61086;BME280;46967;48.876;2.136;2023-08-06T11:21:02;101545.63;;;43.40;11.06
61086;BME280;46967;48.876;2.136;2023-08-06T11:23:28;101545.50;;;40.33;13.09
61086;BME280;46967;48.876;2.136;2023-08-06T11:25:55;101548.88;;;41.68;12.82
61086;BME280;46967;48.876;2.136;2023-08-06T11:28:20;101552.03;;;42.88;11.90
61086;BME280;46967;48.876;2.136;2023-08-06T11:30:49;101542.94;;;42.42;12.02
61086;BME280;46967;48.876;2.136;2023-08-06T11:33:20;101540.09;;;43.74;11.08
61086;BME280;46967;48.876;2.136;2023-08-06T11:35:47;101555.91;;;42.23;12.41
61086;BME280;46967;48.876;2.136;2023-08-06T11:38:13;101558.22;;;42.84;11.77
61086;BME280;46967;48.876;2.136;2023-08-06T11:40:38;101547.44;;;42.77;11.44
61086;BME280;46967;48.876;2.136;2023-08-06T11:43:05;101544.63;;;42.72;11.23
61086;BME280;46967;48.876;2.136;2023-08-06T11:45:31;101547.72;;;42.23;12.11
61086;BME280;46967;48.876;2.136;2023-08-06T11:47:56;101541.53;;;43.77;11.28
61086;BME280;46967;48.876;2.136;2023-08-06T11:50:25;101551.91;;;40.75;12.90
61086;BME280;46967;48.876;2.136;2023-08-06T11:52:59;101572.34;;;41.69;12.09
61086;BME280;46967;48.876;2.136;2023-08-06T11:55:27;101554.91;;;41.58;12.09
61086;BME280;46967;48.876;2.136;2023-08-06T11:57:53;101565.44;;;37.75;15.14
61086;BME280;46967;48.876;2.136;2023-08-06T12:00:19;101563.53;;;38.81;14.41
61086;BME280;46967;48.876;2.136;2023-08-06T12:02:48;101565.44;;;39.83;13.63
61086;BME280;46967;48.876;2.136;2023-08-06T12:05:18;101569.16;;;42.31;11.74
61086;BME280;46967;48.876;2.136;2023-08-06T12:07:54;101570.19;;;40.68;12.95
61086;BME280;46967;48.876;2.136;2023-08-06T12:10:21;101572.53;;;43.20;11.40
61086;BME280;46967;48.876;2.136;2023-08-06T12:12:47;101560.41;;;43.61;10.97
61086;BME280;46967;48.876;2.136;2023-08-06T12:15:14;101560.22;;;42.88;11.51
61086;BME280;46967;48.876;2.136;2023-08-06T12:17:39;101563.56;;;43.53;11.44
61086;BME280;46967;48.876;2.136;2023-08-06T12:20:06;101561.66;;;40.65;13.03
61086;BME280;46967;48.876;2.136;2023-08-06T12:22:35;101551.88;;;43.75;11.44
61086;BME280;46967;48.876;2.136;2023-08-06T12:25:02;101552.91;;;44.74;10.30
61086;BME280;46967;48.876;2.136;2023-08-06T12:27:34;101550.53;;;41.57;12.66
61086;BME280;46967;48.876;2.136;2023-08-06T12:30:00;101564.88;;;44.95;10.56
61086;BME280;46967;48.876;2.136;2023-08-06T12:32:26;101563.50;;;42.21;12.31
61086;BME280;46967;48.876;2.136;2023-08-06T12:34:51;101559.56;;;42.29;11.79
61086;BME280;46967;48.876;2.136;2023-08-06T12:37:16;101542.31;;;43.10;10.98
61086;BME280;46967;48.876;2.136;2023-08-06T12:39:42;101556.13;;;42.10;11.93
61086;BME280;46967;48.876;2.136;2023-08-06T12:42:07;101552.59;;;40.71;12.84
61086;BME280;46967;48.876;2.136;2023-08-06T12:44:32;101551.47;;;41.63;12.47
61086;BME280;46967;48.876;2.136;2023-08-06T12:46:58;101547.72;;;41.76;12.39
61086;BME280;46967;48.876;2.136;2023-08-06T12:49:25;101553.00;;;41.47;12.71
61086;BME280;46967;48.876;2.136;2023-08-06T12:51:53;101549.47;;;42.29;12.13